Time;durP1;ratioP1;P1;durP2;ratioP2;P2;SDS_P1;SDS_P2;PMS_P1;PMS_P2;Temp;Humidity;BMP_temperature;BMP_pressure;BME280_temperature;BME280_humidity;BME280_pressure;Samples;Min_cycle;Max_cycle;Signal;HPM_P1;HPM_P2
2023/12/06 00:01:53;;;;;;;1.20;0.90;;;3.80;99.90;;;;;;4979599;28;20241;-27
2023/12/06 00:04:19;;;;;;;0.80;0.80;;;3.80;99.90;;;;;;4995147;28;20237;-27
2023/12/06 00:06:44;;;;;;;1.60;0.80;;;3.80;99.90;;;;;;4973426;28;20188;-27
2023/12/06 00:09:10;;;;;;;0.83;0.80;;;3.80;99.90;;;;;;4991096;28;20180;-27
2023/12/06 00:11:36;;;;;;;0.80;0.70;;;3.80;99.90;;;;;;4976205;28;20176;-27
2023/12/06 00:14:02;;;;;;;0.90;0.80;;;3.80;99.90;;;;;;4976735;28;20219;-27
2023/12/06 00:16:28;;;;;;;0.77;0.77;;;3.80;99.90;;;;;;4989343;28;20184;-27
2023/12/06 00:18:54;;;;;;;0.70;0.70;;;3.80;99.90;;;;;;4964864;28;20329;-28
2023/12/06 00:21:20;;;;;;;1.47;0.80;;;3.80;99.90;;;;;;4968984;28;20775;-27
2023/12/06 00:23:46;;;;;;;1.40;1.00;;;3.80;99.90;;;;;;4976219;28;20203;-27
2023/12/06 00:26:12;;;;;;;0.70;0.70;;;3.80;99.90;;;;;;4976260;28;20180;-28
2023/12/06 00:28:38;;;;;;;0.70;0.70;;;3.80;99.90;;;;;;4976224;28;20183;-27
2023/12/06 00:31:04;;;;;;;0.70;0.70;;;3.80;99.90;;;;;;4993686;28;20211;-28
2023/12/06 00:33:30;;;;;;;0.60;0.60;;;3.80;99.90;;;;;;4989315;28;20212;-28
2023/12/06 00:35:57;;;;;;;0.80;0.80;;;3.80;99.90;;;;;;4991531;28;20180;-27
2023/12/06 00:38:23;;;;;;;0.60;0.60;;;3.80;99.90;;;;;;4992582;28;20188;-27
2023/12/06 00:40:49;;;;;;;0.80;0.80;;;3.80;99.90;;;;;;4975892;28;20188;-27
2023/12/06 00:43:15;;;;;;;2.37;0.80;;;3.80;99.90;;;;;;4989222;28;20223;-27
2023/12/06 00:45:41;;;;;;;0.60;0.60;;;3.80;99.90;;;;;;4984479;28;20184;-28
2023/12/06 00:48:06;;;;;;;1.10;0.70;;;3.80;99.90;;;;;;4986558;28;20180;-27
2023/12/06 00:50:32;;;;;;;0.63;0.60;;;3.80;99.90;;;;;;4973067;28;20185;-28
2023/12/06 00:52:58;;;;;;;0.87;0.87;;;3.80;99.90;;;;;;4973456;28;20200;-26
2023/12/06 00:55:24;;;;;;;0.90;0.90;;;3.80;99.90;;;;;;4978928;28;20212;-27
2023/12/06 00:57:50;;;;;;;1.03;0.70;;;3.80;99.90;;;;;;5000342;28;20180;-27
2023/12/06 01:00:16;;;;;;;1.00;0.90;;;3.80;99.90;;;;;;4992883;28;20174;-27
2023/12/06 01:02:42;;;;;;;0.83;0.83;;;3.70;99.90;;;;;;4975813;28;20244;-27
2023/12/06 01:05:08;;;;;;;0.57;0.57;;;3.70;99.90;;;;;;4988496;28;20197;-27
2023/12/06 01:07:34;;;;;;;0.60;0.60;;;3.80;99.90;;;;;;4973496;28;20188;-28
2023/12/06 01:09:59;;;;;;;0.73;0.73;;;3.70;99.90;;;;;;4993452;28;20191;-27
2023/12/06 01:12:25;;;;;;;0.90;0.73;;;3.80;99.90;;;;;;4972590;28;20208;-28
2023/12/06 01:14:52;;;;;;;1.17;0.70;;;3.70;99.90;;;;;;4992618;28;20208;-28
2023/12/06 01:17:18;;;;;;;0.70;0.70;;;3.70;99.90;;;;;;4991119;28;20183;-28
2023/12/06 01:19:44;;;;;;;0.70;0.70;;;3.70;99.90;;;;;;4986828;28;20180;-28
2023/12/06 01:22:10;;;;;;;0.67;0.67;;;3.70;99.90;;;;;;4975210;28;20181;-27
2023/12/06 01:24:35;;;;;;;1.03;0.80;;;3.80;99.90;;;;;;4973703;28;20182;-27
2023/12/06 01:27:01;;;;;;;3.27;2.97;;;3.70;99.90;;;;;;4999262;28;20284;-28
2023/12/06 01:29:27;;;;;;;0.80;0.80;;;3.70;99.90;;;;;;4989527;28;20201;-28
2023/12/06 01:31:53;;;;;;;0.50;0.50;;;3.70;99.90;;;;;;4975206;28;20184;-27
2023/12/06 01:34:19;;;;;;;0.70;0.60;;;3.70;99.90;;;;;;4972674;28;20240;-27
2023/12/06 01:36:45;;;;;;;0.80;0.80;;;3.70;99.90;;;;;;4973164;28;20216;-28
2023/12/06 01:39:11;;;;;;;1.83;0.70;;;3.70;99.90;;;;;;4970855;28;20189;-27
2023/12/06 01:41:39;;;;;;;0.50;0.50;;;3.70;99.90;;;;;;4970321;28;20215;-27
2023/12/06 01:44:05;;;;;;;0.60;0.60;;;3.70;99.90;;;;;;4984852;28;20230;-27
2023/12/06 01:46:32;;;;;;;0.60;0.60;;;3.70;99.90;;;;;;4991192;28;20187;-27
2023/12/06 01:48:59;;;;;;;0.50;0.50;;;3.70;99.90;;;;;;4973947;28;20184;-28
2023/12/06 01:51:26;;;;;;;1.40;0.67;;;3.70;99.90;;;;;;4976000;28;20194;-28
2023/12/06 01:53:52;;;;;;;0.70;0.70;;;3.70;99.90;;;;;;4987853;28;20215;-27
2023/12/06 01:56:18;;;;;;;0.70;0.50;;;3.60;99.90;;;;;;4971771;28;20181;-28
2023/12/06 01:58:45;;;;;;;0.70;0.70;;;3.60;99.90;;;;;;4981980;28;20222;-27
2023/12/06 02:01:12;;;;;;;0.70;0.70;;;3.60;99.90;;;;;;4961849;28;20185;-27
2023/12/06 02:03:38;;;;;;;0.80;0.70;;;3.70;99.90;;;;;;4974747;28;20265;-25
2023/12/06 02:06:07;;;;;;;0.60;0.60;;;3.60;99.90;;;;;;4974910;28;20187;-27
2023/12/06 02:08:35;;;;;;;0.50;0.50;;;3.60;99.90;;;;;;4992335;28;20236;-27
2023/12/06 02:11:01;;;;;;;0.63;0.60;;;3.70;99.90;;;;;;4975116;28;20711;-27
2023/12/06 02:13:28;;;;;;;1.90;0.80;;;3.70;99.90;;;;;;4972588;28;20204;-27
2023/12/06 02:15:55;;;;;;;1.80;0.60;;;3.70;99.90;;;;;;4973917;28;20184;-27
2023/12/06 02:18:22;;;;;;;0.83;0.60;;;3.70;99.90;;;;;;5011973;28;20237;-26
2023/12/06 02:20:48;;;;;;;0.67;0.60;;;3.70;99.90;;;;;;4987934;28;20219;-27
2023/12/06 02:23:15;;;;;;;0.60;0.60;;;3.70;99.90;;;;;;5011610;28;20678;-26
2023/12/06 02:25:44;;;;;;;0.50;0.50;;;3.80;99.90;;;;;;4960992;28;20181;-26
2023/12/06 02:28:10;;;;;;;1.33;0.50;;;3.80;99.90;;;;;;4977270;28;20239;-26
2023/12/06 02:30:36;;;;;;;0.70;0.60;;;3.80;99.90;;;;;;4990595;28;20175;-26
2023/12/06 02:33:02;;;;;;;0.87;0.80;;;3.80;99.90;;;;;;4961978;28;20212;-27
2023/12/06 02:35:35;;;;;;;0.70;0.70;;;3.80;99.90;;;;;;4965926;28;20298;-27
2023/12/06 02:38:02;;;;;;;0.83;0.60;;;3.80;99.90;;;;;;4991077;28;20180;-27
2023/12/06 02:40:31;;;;;;;0.83;0.60;;;3.80;99.90;;;;;;4971056;28;20189;-27
2023/12/06 02:42:58;;;;;;;0.60;0.60;;;3.80;99.90;;;;;;4977326;28;20212;-26
2023/12/06 02:45:25;;;;;;;0.47;0.47;;;3.80;99.90;;;;;;4973484;28;20330;-28
2023/12/06 02:47:50;;;;;;;1.10;0.50;;;3.90;99.90;;;;;;4968643;28;20181;-27
2023/12/06 02:50:16;;;;;;;0.87;0.60;;;3.90;99.90;;;;;;4990290;28;20187;-26
2023/12/06 02:52:42;;;;;;;1.40;0.60;;;3.80;99.90;;;;;;4982092;28;20211;-26
2023/12/06 02:55:08;;;;;;;0.60;0.60;;;3.80;99.90;;;;;;4965276;28;20395;-26
2023/12/06 02:57:34;;;;;;;0.60;0.60;;;3.80;99.90;;;;;;4989773;28;20207;-26
2023/12/06 03:00:00;;;;;;;0.80;0.57;;;3.80;99.90;;;;;;4989876;28;20180;-27
2023/12/06 03:02:25;;;;;;;0.60;0.60;;;3.80;99.90;;;;;;4986332;28;20209;-26
2023/12/06 03:04:51;;;;;;;1.23;0.43;;;3.80;99.90;;;;;;4979304;28;20295;-26
2023/12/06 03:07:17;;;;;;;0.60;0.60;;;3.70;99.90;;;;;;4990523;28;20187;-26
2023/12/06 03:09:43;;;;;;;3.77;1.77;;;3.70;99.90;;;;;;4965970;28;20195;-26
2023/12/06 03:12:09;;;;;;;2.23;1.40;;;3.70;99.90;;;;;;4972316;28;20184;-26
2023/12/06 03:14:35;;;;;;;1.60;1.10;;;3.70;99.90;;;;;;4990135;28;20751;-26
2023/12/06 03:17:00;;;;;;;1.33;1.10;;;3.60;99.90;;;;;;4999728;28;20239;-27
2023/12/06 03:19:26;;;;;;;0.93;0.90;;;3.60;99.90;;;;;;4978268;28;20210;-27
2023/12/06 03:21:52;;;;;;;0.70;0.70;;;3.60;99.90;;;;;;4989190;28;20194;-27
2023/12/06 03:24:18;;;;;;;1.70;0.70;;;3.60;99.90;;;;;;4970888;28;20303;-26
2023/12/06 03:26:44;;;;;;;1.13;0.60;;;3.60;99.90;;;;;;4988668;28;20280;-26
2023/12/06 03:29:09;;;;;;;0.80;0.50;;;3.60;99.90;;;;;;4989155;28;20202;-27
2023/12/06 03:31:35;;;;;;;0.60;0.50;;;3.60;99.90;;;;;;4989208;28;20190;-29
2023/12/06 03:34:01;;;;;;;0.50;0.40;;;3.60;99.90;;;;;;4968714;28;20311;-26
2023/12/06 03:36:27;;;;;;;0.70;0.50;;;3.60;99.90;;;;;;4998941;28;20208;-25
2023/12/06 03:38:53;;;;;;;0.73;0.60;;;3.50;99.90;;;;;;4962800;28;20199;-26
2023/12/06 03:41:19;;;;;;;0.90;0.60;;;3.50;99.90;;;;;;4980099;28;20280;-27
2023/12/06 03:43:45;;;;;;;1.63;0.60;;;3.50;99.90;;;;;;4978623;28;20298;-25
2023/12/06 03:46:11;;;;;;;0.63;0.60;;;3.40;99.90;;;;;;4998295;28;20212;-26
2023/12/06 03:48:37;;;;;;;0.73;0.63;;;3.40;99.90;;;;;;4989535;28;20187;-26
2023/12/06 03:51:03;;;;;;;0.77;0.70;;;3.40;99.90;;;;;;4989341;28;20199;-27
2023/12/06 03:53:29;;;;;;;0.97;0.80;;;3.30;99.90;;;;;;4964111;28;20240;-26
2023/12/06 03:55:55;;;;;;;0.60;0.60;;;3.30;99.90;;;;;;4969347;28;20219;-26
2023/12/06 03:58:22;;;;;;;1.10;0.80;;;3.20;99.90;;;;;;4980985;28;20184;-27
2023/12/06 04:00:48;;;;;;;1.27;0.57;;;3.20;99.90;;;;;;4990375;28;20223;-26
2023/12/06 04:03:14;;;;;;;0.80;0.80;;;3.20;99.90;;;;;;4990340;28;20203;-26
2023/12/06 04:05:43;;;;;;;0.50;0.47;;;3.20;99.90;;;;;;4969308;28;20202;-28
2023/12/06 04:08:10;;;;;;;0.97;0.53;;;3.20;99.90;;;;;;4959864;28;20220;-26
2023/12/06 04:10:37;;;;;;;0.67;0.60;;;3.10;99.90;;;;;;4982202;28;20204;-26
2023/12/06 04:13:04;;;;;;;0.60;0.60;;;3.10;99.90;;;;;;4967340;28;20212;-27
2023/12/06 04:15:31;;;;;;;0.57;0.50;;;3.10;99.90;;;;;;4968726;28;20216;-26
2023/12/06 04:17:57;;;;;;;0.67;0.50;;;3.10;99.90;;;;;;5017394;28;20183;-26
2023/12/06 04:20:23;;;;;;;0.70;0.70;;;3.10;99.90;;;;;;4989914;28;20192;-27
2023/12/06 04:22:49;;;;;;;1.07;0.70;;;3.20;99.90;;;;;;4953818;28;20209;-27
2023/12/06 04:25:15;;;;;;;0.87;0.60;;;3.20;99.90;;;;;;4964868;28;20196;-26
2023/12/06 04:27:41;;;;;;;0.87;0.63;;;3.20;99.90;;;;;;4965572;28;20193;-27
2023/12/06 04:30:09;;;;;;;0.60;0.60;;;3.30;99.90;;;;;;4977770;28;20191;-27
2023/12/06 04:32:35;;;;;;;0.60;0.60;;;3.30;99.90;;;;;;4970921;28;20231;-27
2023/12/06 04:35:01;;;;;;;0.83;0.70;;;3.40;99.90;;;;;;4971861;28;20239;-26
2023/12/06 04:37:27;;;;;;;0.70;0.70;;;3.40;99.90;;;;;;4971256;28;20178;-27
2023/12/06 04:39:52;;;;;;;0.80;0.80;;;3.40;99.90;;;;;;4972229;28;20188;-27
2023/12/06 04:42:18;;;;;;;1.00;0.90;;;3.40;99.90;;;;;;4989950;28;20214;-26
2023/12/06 04:44:44;;;;;;;0.80;0.80;;;3.40;99.90;;;;;;4977675;28;20279;-28
2023/12/06 04:47:10;;;;;;;1.00;0.90;;;3.40;99.90;;;;;;4985171;28;20192;-26
2023/12/06 04:49:37;;;;;;;0.90;0.90;;;3.40;99.90;;;;;;4977773;28;20189;-27
2023/12/06 04:52:04;;;;;;;0.83;0.63;;;3.40;99.90;;;;;;4973222;28;20307;-27
2023/12/06 04:54:30;;;;;;;1.17;0.90;;;3.40;99.90;;;;;;4968926;28;20213;-29
2023/12/06 04:56:56;;;;;;;1.10;0.70;;;3.40;99.90;;;;;;4988545;28;20271;-26
2023/12/06 04:59:22;;;;;;;0.73;0.73;;;3.40;99.90;;;;;;4976463;28;20252;-26
2023/12/06 05:01:48;;;;;;;1.07;0.70;;;3.40;99.90;;;;;;4977768;28;20184;-26
2023/12/06 05:04:14;;;;;;;0.73;0.70;;;3.30;99.90;;;;;;4975989;28;20216;-26
2023/12/06 05:06:40;;;;;;;0.60;0.60;;;3.30;99.90;;;;;;4988705;28;20291;-27
2023/12/06 05:09:07;;;;;;;1.33;0.60;;;3.30;99.90;;;;;;4969977;28;20180;-26
2023/12/06 05:11:33;;;;;;;1.90;0.70;;;3.30;99.90;;;;;;4994056;28;20188;-26
2023/12/06 05:13:59;;;;;;;0.93;0.73;;;3.30;99.90;;;;;;4974219;28;20209;-27
2023/12/06 05:16:25;;;;;;;1.27;0.97;;;3.40;99.90;;;;;;4974913;28;20184;-28
2023/12/06 05:18:52;;;;;;;1.50;1.40;;;3.30;99.90;;;;;;4968599;28;20185;-27
2023/12/06 05:21:17;;;;;;;1.73;1.57;;;3.40;99.90;;;;;;4974767;28;20192;-26
2023/12/06 05:23:43;;;;;;;1.97;1.70;;;3.40;99.90;;;;;;4989255;28;20231;-26
2023/12/06 05:26:09;;;;;;;2.13;1.70;;;3.40;99.90;;;;;;4989656;28;20199;-27
2023/12/06 05:28:35;;;;;;;2.07;1.70;;;3.40;99.90;;;;;;4980235;28;20207;-26
2023/12/06 05:31:00;;;;;;;2.43;1.70;;;3.40;99.90;;;;;;4975643;28;20180;-26
2023/12/06 05:33:27;;;;;;;2.57;1.70;;;3.40;99.90;;;;;;4975383;28;20287;-26
2023/12/06 05:35:55;;;;;;;1.80;1.43;;;3.40;99.90;;;;;;4966026;28;20211;-27
2023/12/06 05:38:21;;;;;;;1.30;1.20;;;3.50;99.90;;;;;;4972178;28;20185;-27
2023/12/06 05:40:48;;;;;;;1.43;1.23;;;3.40;99.90;;;;;;4972374;28;20248;-26
2023/12/06 05:43:14;;;;;;;1.40;1.30;;;3.40;99.90;;;;;;5007009;28;20196;-27
2023/12/06 05:45:40;;;;;;;2.13;1.50;;;3.40;99.90;;;;;;4990815;28;20246;-26
2023/12/06 05:48:05;;;;;;;1.67;1.30;;;3.50;99.90;;;;;;4982464;28;20330;-28
2023/12/06 05:50:31;;;;;;;3.30;1.50;;;3.50;99.90;;;;;;4990225;28;20192;-26
2023/12/06 05:52:58;;;;;;;3.53;2.33;;;3.50;99.90;;;;;;4974409;28;20275;-28
2023/12/06 05:55:24;;;;;;;3.07;1.70;;;3.50;99.90;;;;;;4990241;28;20208;-28
2023/12/06 05:57:49;;;;;;;1.53;1.40;;;3.50;99.90;;;;;;4970969;28;20177;-28
2023/12/06 06:00:17;;;;;;;1.80;1.40;;;3.60;99.90;;;;;;4987998;28;20180;-27
2023/12/06 06:02:43;;;;;;;4.50;2.00;;;3.60;99.90;;;;;;4971489;28;20209;-27
2023/12/06 06:05:10;;;;;;;4.03;2.13;;;3.60;99.90;;;;;;4984270;28;20188;-27
2023/12/06 06:07:37;;;;;;;4.33;1.80;;;3.60;99.90;;;;;;4971460;28;20188;-27
2023/12/06 06:10:03;;;;;;;1.47;1.37;;;3.60;99.90;;;;;;4965664;28;20176;-28
2023/12/06 06:12:29;;;;;;;4.47;1.90;;;3.60;99.90;;;;;;4988899;28;20215;-28
2023/12/06 06:14:55;;;;;;;1.93;1.33;;;3.60;99.90;;;;;;4990812;28;20207;-27
2023/12/06 06:17:21;;;;;;;1.33;1.23;;;3.60;99.90;;;;;;4991802;28;20192;-27
2023/12/06 06:19:48;;;;;;;1.80;1.40;;;3.60;99.90;;;;;;4991062;28;20187;-28
2023/12/06 06:22:14;;;;;;;2.10;1.30;;;3.60;99.90;;;;;;4979835;28;20178;-28
2023/12/06 06:24:40;;;;;;;1.97;1.30;;;3.60;99.90;;;;;;4985702;28;20214;-28
2023/12/06 06:27:06;;;;;;;1.93;1.40;;;3.60;99.90;;;;;;4975261;28;20184;-28
2023/12/06 06:29:32;;;;;;;3.33;1.50;;;3.50;99.90;;;;;;4991144;28;20231;-28
2023/12/06 06:31:58;;;;;;;3.47;1.90;;;3.50;99.90;;;;;;4974436;28;20202;-27
2023/12/06 06:34:24;;;;;;;3.27;1.77;;;3.50;99.90;;;;;;4991250;28;20246;-27
2023/12/06 06:36:50;;;;;;;1.63;1.50;;;3.40;99.90;;;;;;4992490;28;20204;-27
2023/12/06 06:39:15;;;;;;;3.13;1.57;;;3.40;99.90;;;;;;4991350;28;20179;-28
2023/12/06 06:41:42;;;;;;;2.47;1.27;;;3.40;99.90;;;;;;4971229;28;20185;-27
2023/12/06 06:44:08;;;;;;;1.27;1.17;;;3.40;99.90;;;;;;4983088;28;20204;-27
2023/12/06 06:46:34;;;;;;;2.33;1.40;;;3.40;99.90;;;;;;4996105;28;20201;-27
2023/12/06 06:49:00;;;;;;;2.97;1.87;;;3.40;99.90;;;;;;4972345;28;20262;-28
2023/12/06 06:51:35;;;;;;;2.77;1.37;;;3.40;99.90;;;;;;4955248;28;20254;-27
2023/12/06 06:54:05;;;;;;;1.73;1.23;;;3.40;99.90;;;;;;4972661;28;20212;-27
2023/12/06 06:56:31;;;;;;;1.90;1.30;;;3.40;99.90;;;;;;4954946;28;20185;-28
2023/12/06 06:58:57;;;;;;;2.03;1.20;;;3.30;99.90;;;;;;4971081;28;20187;-28
2023/12/06 07:01:23;;;;;;;1.77;1.27;;;3.30;99.90;;;;;;4955765;28;20210;-28
2023/12/06 07:03:51;;;;;;;2.43;1.60;;;3.30;99.90;;;;;;4973702;28;20223;-27
2023/12/06 07:06:18;;;;;;;1.33;1.10;;;3.30;99.90;;;;;;4973535;28;20187;-28
2023/12/06 07:08:44;;;;;;;1.97;1.30;;;3.30;99.90;;;;;;4990215;28;20231;-27
2023/12/06 07:11:11;;;;;;;2.03;1.00;;;3.30;99.90;;;;;;4973691;28;20176;-27
2023/12/06 07:13:39;;;;;;;1.40;1.13;;;3.30;99.90;;;;;;4990466;28;20207;-27
2023/12/06 07:16:06;;;;;;;1.87;1.37;;;3.30;99.90;;;;;;4989068;28;20175;-28
2023/12/06 07:18:32;;;;;;;2.23;1.40;;;3.30;99.90;;;;;;4989866;28;20192;-28
2023/12/06 07:20:59;;;;;;;1.30;1.20;;;3.40;99.90;;;;;;5005408;28;20180;-27
2023/12/06 07:23:26;;;;;;;1.80;1.50;;;3.30;99.90;;;;;;5006124;28;20203;-28
2023/12/06 07:25:53;;;;;;;2.23;1.33;;;3.40;99.90;;;;;;5022791;28;20302;-28
2023/12/06 07:28:21;;;;;;;2.13;1.43;;;3.40;99.90;;;;;;4988913;28;20192;-27
2023/12/06 07:30:47;;;;;;;1.43;1.30;;;3.40;99.90;;;;;;4991186;28;20248;-28
2023/12/06 07:33:15;;;;;;;2.40;1.50;;;3.40;99.90;;;;;;5005447;28;20199;-27
2023/12/06 07:35:42;;;;;;;3.40;1.63;;;3.40;99.90;;;;;;5005281;28;20239;-28
2023/12/06 07:38:10;;;;;;;2.30;1.07;;;3.40;99.90;;;;;;5023168;28;20199;-27
2023/12/06 07:40:36;;;;;;;1.83;1.17;;;3.40;99.90;;;;;;5022992;28;20176;-28
2023/12/06 07:43:03;;;;;;;2.50;1.40;;;3.40;99.90;;;;;;5004916;28;20226;-27
2023/12/06 07:45:28;;;;;;;1.77;1.30;;;3.50;99.90;;;;;;5019325;28;20188;-28
2023/12/06 07:47:54;;;;;;;1.53;1.40;;;3.50;99.90;;;;;;4987652;28;20192;-27
2023/12/06 07:50:20;;;;;;;2.73;1.80;;;3.50;99.90;;;;;;5006281;28;20190;-28
2023/12/06 07:52:47;;;;;;;3.90;2.20;;;3.50;99.90;;;;;;5022547;28;20215;-28
2023/12/06 07:55:14;;;;;;;3.27;2.00;;;3.50;99.90;;;;;;5006063;28;20216;-27
2023/12/06 07:57:40;;;;;;;2.83;2.00;;;3.60;99.90;;;;;;5022658;28;20172;-27
2023/12/06 08:00:11;;;;;;;3.00;1.73;;;3.50;99.90;;;;;;5022662;28;20188;-28
2023/12/06 08:02:42;;;;;;;2.60;1.93;;;3.50;99.90;;;;;;5045285;22;20296;-31
2023/12/06 08:05:11;;;;;;;1.70;1.60;;;3.50;99.90;;;;;;4969789;28;20204;-31
2023/12/06 08:07:40;;;;;;;2.00;1.60;;;3.50;99.90;;;;;;4970214;28;20201;-31
2023/12/06 08:10:10;;;;;;;2.57;1.67;;;3.50;99.90;;;;;;4971936;28;20191;-30
2023/12/06 08:12:37;;;;;;;1.97;1.70;;;3.50;99.90;;;;;;4969927;28;20184;-31
2023/12/06 08:15:07;;;;;;;4.47;2.00;;;3.50;99.90;;;;;;4950853;28;20215;-30
2023/12/06 08:17:33;;;;;;;3.90;2.30;;;3.50;99.90;;;;;;4935033;29;20188;-30
2023/12/06 08:19:59;;;;;;;2.73;2.00;;;3.50;99.90;;;;;;4935572;29;20188;-29
2023/12/06 08:22:26;;;;;;;1.93;1.50;;;3.50;99.90;;;;;;4935186;29;20189;-32
2023/12/06 08:24:56;;;;;;;2.77;2.40;;;3.60;99.90;;;;;;4935039;29;20299;-32
2023/12/06 08:27:27;;;;;;;4.37;2.43;;;3.70;99.90;;;;;;4935191;29;20244;-29
2023/12/06 08:29:55;;;;;;;2.43;1.60;;;3.80;99.90;;;;;;4952179;28;20182;-30
2023/12/06 08:32:21;;;;;;;2.07;1.50;;;3.90;99.90;;;;;;4938655;29;20190;-30
2023/12/06 08:34:48;;;;;;;2.57;1.60;;;3.90;99.90;;;;;;4954543;28;20312;-31
2023/12/06 08:37:14;;;;;;;2.17;1.60;;;4.00;99.90;;;;;;4989979;28;20188;-30
2023/12/06 08:39:39;;;;;;;2.80;1.53;;;4.10;99.90;;;;;;4958039;28;20186;-28
2023/12/06 08:42:06;;;;;;;2.43;1.63;;;4.10;99.90;;;;;;4957844;28;20180;-30
2023/12/06 08:44:32;;;;;;;2.60;1.73;;;4.20;99.90;;;;;;4956865;28;20235;-30
2023/12/06 08:46:58;;;;;;;3.13;2.03;;;4.20;99.90;;;;;;4955626;29;20725;-31
2023/12/06 08:49:24;;;;;;;1.80;1.47;;;4.30;99.90;;;;;;4953814;29;20288;-31
2023/12/06 08:51:50;;;;;;;3.93;1.83;;;4.30;99.90;;;;;;4938444;29;20181;-31
2023/12/06 08:54:15;;;;;;;1.77;1.60;;;4.30;99.90;;;;;;4937983;28;20209;-31
2023/12/06 08:56:42;;;;;;;2.80;2.27;;;4.30;99.90;;;;;;4950285;29;20214;-31
2023/12/06 08:59:08;;;;;;;3.63;1.90;;;4.40;99.90;;;;;;4957202;29;20182;-31
2023/12/06 09:01:33;;;;;;;3.13;2.03;;;4.40;99.90;;;;;;4950335;29;20195;-31
2023/12/06 09:03:59;;;;;;;4.37;2.77;;;4.40;99.90;;;;;;4955170;29;20300;-31
2023/12/06 09:06:25;;;;;;;3.53;2.40;;;4.40;99.90;;;;;;4955481;29;20182;-31
2023/12/06 09:08:51;;;;;;;2.00;1.80;;;4.40;99.90;;;;;;4953188;29;20192;-31
2023/12/06 09:11:20;;;;;;;2.67;1.80;;;4.40;99.90;;;;;;4953339;29;20190;-28
2023/12/06 09:13:47;;;;;;;2.80;2.20;;;4.50;99.90;;;;;;4945331;29;20205;-30
2023/12/06 09:16:13;;;;;;;3.60;2.17;;;4.50;99.90;;;;;;4977324;28;20238;-34
2023/12/06 09:18:39;;;;;;;3.70;2.30;;;4.50;99.90;;;;;;4945787;29;20197;-30
2023/12/06 09:21:05;;;;;;;2.83;2.63;;;4.50;99.90;;;;;;4961604;28;20197;-33
2023/12/06 09:23:31;;;;;;;2.50;2.03;;;4.60;99.90;;;;;;4941921;29;20225;-30
2023/12/06 09:25:59;;;;;;;2.30;2.10;;;4.60;99.90;;;;;;4940614;29;20193;-31
2023/12/06 09:28:25;;;;;;;4.63;2.63;;;4.60;99.90;;;;;;4955806;28;20214;-32
2023/12/06 09:30:52;;;;;;;3.43;2.80;;;4.60;99.90;;;;;;4945893;28;20185;-29
2023/12/06 09:33:19;;;;;;;3.23;2.70;;;4.60;99.90;;;;;;4962154;28;20251;-32
2023/12/06 09:35:45;;;;;;;2.60;2.40;;;4.70;99.90;;;;;;4958524;28;20283;-31
2023/12/06 09:38:12;;;;;;;3.20;2.90;;;4.70;99.90;;;;;;4937761;28;20345;-29
2023/12/06 09:40:38;;;;;;;3.40;2.90;;;4.70;99.90;;;;;;4937608;28;20226;-29
2023/12/06 09:43:04;;;;;;;3.37;3.07;;;4.70;99.90;;;;;;4941315;28;20238;-32
2023/12/06 09:45:30;;;;;;;4.37;3.53;;;4.80;99.90;;;;;;4956248;28;20227;-28
2023/12/06 09:47:56;;;;;;;6.33;3.60;;;4.80;99.90;;;;;;4973332;28;20191;-29
2023/12/06 09:50:26;;;;;;;4.90;4.10;;;4.80;99.90;;;;;;4975294;28;20656;-29
2023/12/06 09:52:53;;;;;;;4.30;3.90;;;4.80;99.90;;;;;;4975007;28;20233;-31
2023/12/06 09:55:23;;;;;;;4.87;4.07;;;4.80;99.90;;;;;;4972615;28;20219;-31
2023/12/06 09:57:51;;;;;;;6.17;4.83;;;4.70;99.90;;;;;;4974294;28;20175;-31
2023/12/06 10:00:17;;;;;;;5.90;5.00;;;4.80;99.90;;;;;;4971818;28;20183;-31
2023/12/06 10:02:55;;;;;;;5.80;5.20;;;4.80;99.90;;;;;;4972359;28;20194;-31
2023/12/06 10:05:22;;;;;;;7.07;5.43;;;4.70;99.90;;;;;;4957706;28;20196;-31
2023/12/06 10:07:48;;;;;;;7.37;5.60;;;4.80;99.90;;;;;;4953391;29;20188;-34
2023/12/06 10:10:19;;;;;;;6.07;5.13;;;4.80;99.90;;;;;;4952799;29;20183;-31
2023/12/06 10:12:57;;;;;;;6.23;5.20;;;4.80;99.90;;;;;;4955816;28;20323;-31
2023/12/06 10:15:24;;;;;;;6.57;5.60;;;4.80;99.90;;;;;;4955737;28;20206;-29
2023/12/06 10:17:51;;;;;;;6.67;5.47;;;4.80;99.90;;;;;;4963976;28;20188;-32
2023/12/06 10:20:19;;;;;;;6.37;5.10;;;4.80;99.90;;;;;;4960298;28;20236;-32
2023/12/06 10:22:47;;;;;;;6.83;5.23;;;4.80;99.90;;;;;;4937274;29;20214;-29
2023/12/06 10:25:13;;;;;;;5.60;5.10;;;4.80;99.90;;;;;;4952756;28;20267;-31
2023/12/06 10:27:39;;;;;;;6.73;5.73;;;4.80;99.90;;;;;;4952671;29;20298;-31
2023/12/06 10:30:06;;;;;;;6.83;5.47;;;4.80;99.90;;;;;;4936184;29;20253;-32
2023/12/06 10:32:33;;;;;;;6.63;5.40;;;4.80;99.90;;;;;;4950828;28;20276;-32
2023/12/06 10:35:01;;;;;;;5.67;5.07;;;4.90;99.90;;;;;;4948154;28;20291;-30
2023/12/06 10:37:28;;;;;;;6.67;5.40;;;4.90;99.90;;;;;;4935373;29;20250;-29
2023/12/06 10:40:09;;;;;;;6.33;4.93;;;4.90;99.90;;;;;;4936215;29;20681;-31
2023/12/06 10:42:36;;;;;;;6.73;5.70;;;4.90;99.90;;;;;;4945849;28;20269;-34
2023/12/06 10:45:04;;;;;;;6.90;5.83;;;5.00;99.90;;;;;;4952282;28;20191;-30
2023/12/06 10:47:31;;;;;;;6.60;5.60;;;5.00;99.90;;;;;;4949228;29;20188;-31
2023/12/06 10:49:58;;;;;;;7.73;6.60;;;4.90;99.90;;;;;;4929027;29;20183;-33
2023/12/06 10:52:24;;;;;;;7.00;6.17;;;4.90;99.90;;;;;;4933153;29;20219;-33
2023/12/06 10:54:51;;;;;;;6.97;5.30;;;4.90;99.90;;;;;;4932922;29;20221;-34
2023/12/06 10:57:20;;;;;;;7.20;5.40;;;4.90;99.90;;;;;;4932514;29;20193;-34
2023/12/06 10:59:47;;;;;;;7.03;4.73;;;4.90;99.90;;;;;;4941154;28;20208;-32
2023/12/06 11:02:13;;;;;;;6.53;5.20;;;5.00;99.90;;;;;;4958824;28;20181;-33
2023/12/06 11:04:47;;;;;;;7.10;5.60;;;5.00;99.90;;;;;;4942347;28;20276;-32
2023/12/06 11:07:34;;;;;;;7.27;5.20;;;5.00;99.90;;;;;;4948625;29;20193;-31
2023/12/06 11:10:38;;;;;;;5.43;4.87;;;5.00;99.90;;;;;;4935729;29;20240;-31
2023/12/06 11:13:07;;;;;;;6.40;5.20;;;5.00;99.90;;;;;;4951058;28;20213;-31
2023/12/06 11:16:14;;;;;;;5.80;4.97;;;5.00;99.90;;;;;;4950778;28;20214;-31
2023/12/06 11:18:46;;;;;;;6.07;5.33;;;5.00;99.90;;;;;;4934911;29;20221;-32
2023/12/06 11:21:13;;;;;;;6.30;4.77;;;5.00;99.90;;;;;;4950780;29;20720;-32
2023/12/06 11:23:40;;;;;;;5.60;5.10;;;5.00;99.90;;;;;;4949154;28;20286;-32
2023/12/06 11:26:06;;;;;;;5.80;5.07;;;5.00;99.90;;;;;;4949865;28;20188;-32
2023/12/06 11:28:40;;;;;;;5.27;4.43;;;5.00;99.90;;;;;;4937573;28;20200;-32
2023/12/06 11:31:07;;;;;;;6.17;4.40;;;5.10;99.90;;;;;;4969137;28;20197;-30
2023/12/06 11:33:34;;;;;;;6.97;5.07;;;5.00;99.90;;;;;;4969933;28;20203;-34
2023/12/06 11:35:59;;;;;;;5.93;4.83;;;5.10;99.90;;;;;;4969763;28;20292;-31
2023/12/06 11:38:36;;;;;;;5.60;4.70;;;5.10;99.90;;;;;;4968850;28;20179;-31
2023/12/06 11:41:06;;;;;;;5.60;5.00;;;5.10;99.90;;;;;;4946792;29;20182;-32
2023/12/06 11:43:40;;;;;;;8.10;4.70;;;5.10;99.90;;;;;;4938774;29;20210;-32
2023/12/06 11:46:10;;;;;;;5.30;4.67;;;5.10;99.90;;;;;;4945431;28;20197;-29
2023/12/06 11:48:37;;;;;;;4.63;4.17;;;5.10;99.90;;;;;;4948761;29;20192;-31
2023/12/06 11:51:04;;;;;;;6.20;5.00;;;5.10;99.90;;;;;;4934618;29;20748;-31
2023/12/06 11:53:31;;;;;;;5.13;4.63;;;5.10;99.90;;;;;;4950997;29;20240;-33
2023/12/06 11:55:57;;;;;;;6.97;4.13;;;5.10;99.90;;;;;;4950445;28;20211;-33
2023/12/06 11:58:30;;;;;;;8.57;4.40;;;5.00;99.90;;;;;;4951025;29;20176;-34
2023/12/06 12:00:57;;;;;;;4.80;4.30;;;5.00;99.90;;;;;;4934239;29;20268;-31
2023/12/06 12:03:24;;;;;;;6.53;4.90;;;5.00;99.90;;;;;;4950347;29;20219;-32
2023/12/06 12:05:51;;;;;;;6.13;4.37;;;5.00;99.90;;;;;;4953966;28;20279;-31
2023/12/06 12:08:18;;;;;;;5.20;4.70;;;5.00;99.90;;;;;;4953007;29;20177;-31
2023/12/06 12:10:43;;;;;;;5.33;4.40;;;5.00;99.90;;;;;;4953869;29;20188;-29
2023/12/06 12:13:19;;;;;;;5.00;4.30;;;4.90;99.90;;;;;;4953531;28;20207;-34
2023/12/06 12:15:56;;;;;;;5.67;4.80;;;4.90;99.90;;;;;;4935894;29;20207;-32
2023/12/06 12:18:24;;;;;;;6.97;4.80;;;4.90;99.90;;;;;;4938639;29;20181;-32
2023/12/06 12:20:50;;;;;;;4.57;4.07;;;4.90;99.90;;;;;;4954416;29;20181;-32
2023/12/06 12:23:16;;;;;;;5.03;4.53;;;4.80;99.90;;;;;;4952258;29;20202;-31
2023/12/06 12:25:49;;;;;;;5.07;4.20;;;4.80;99.90;;;;;;4943795;29;20193;-32
2023/12/06 12:28:19;;;;;;;6.60;5.03;;;4.80;99.90;;;;;;4946552;29;20249;-33
2023/12/06 12:30:46;;;;;;;5.57;5.07;;;4.80;99.90;;;;;;4948580;29;20192;-29
2023/12/06 12:33:17;;;;;;;7.03;5.60;;;4.80;99.90;;;;;;4954687;28;20265;-33
2023/12/06 12:35:43;;;;;;;7.33;5.10;;;4.80;99.90;;;;;;4960684;28;20224;-31
2023/12/06 12:38:10;;;;;;;5.67;4.70;;;4.80;99.90;;;;;;4946789;29;20177;-29
2023/12/06 12:40:38;;;;;;;5.83;5.00;;;4.90;99.90;;;;;;4955107;28;20188;-34
2023/12/06 12:43:07;;;;;;;8.40;5.70;;;4.80;99.90;;;;;;4962839;28;20227;-33
2023/12/06 12:45:33;;;;;;;6.47;5.30;;;4.80;99.90;;;;;;4953999;28;20191;-31
2023/12/06 12:47:59;;;;;;;6.60;4.97;;;4.80;99.90;;;;;;4949265;29;20187;-32
2023/12/06 12:50:25;;;;;;;8.23;6.80;;;4.80;99.90;;;;;;4951634;29;20193;-30
2023/12/06 12:52:55;;;;;;;8.47;7.07;;;4.80;99.90;;;;;;4938048;29;20235;-32
2023/12/06 12:55:22;;;;;;;7.70;6.20;;;4.90;99.90;;;;;;4936710;29;20204;-29
2023/12/06 12:57:52;;;;;;;9.27;7.03;;;4.80;99.90;;;;;;4953555;28;20174;-31